createdAt,value
2022-11-13T00:00:41.649Z,19.42
2022-11-13T00:01:43.726Z,19.85
2022-11-13T00:02:45.657Z,21.83
2022-11-13T00:03:47.877Z,17.02
2022-11-13T00:04:50.975Z,24.60
2022-11-13T00:06:04.343Z,22.45
2022-11-13T00:07:06.558Z,28.15
2022-11-13T00:08:08.569Z,24.05
2022-11-13T00:09:12.064Z,15.30
2022-11-13T00:10:14.159Z,19.20
2022-11-13T00:11:20.055Z,20.80
2022-11-13T00:12:22.045Z,16.88
2022-11-13T00:13:29.061Z,15.38
2022-11-13T00:14:32.286Z,22.98
2022-11-13T00:15:34.188Z,16.73
2022-11-13T00:16:36.068Z,17.55
2022-11-13T00:17:38.165Z,17.15
2022-11-13T00:18:40.623Z,20.52
2022-11-13T00:19:42.567Z,16.38
2022-11-13T00:20:44.507Z,18.13
2022-11-13T00:21:46.457Z,17.75
2022-11-13T00:22:48.374Z,18.63
2022-11-13T00:23:51.720Z,21.05
2022-11-13T00:24:54.491Z,17.15
2022-11-13T00:25:56.367Z,21.10
2022-11-13T00:26:59.296Z,19.38
2022-11-13T00:28:01.208Z,19.70
2022-11-13T00:29:03.889Z,14.70
2022-11-13T00:30:06.506Z,14.85
2022-11-13T00:31:09.948Z,18.20
2022-11-13T00:32:12.060Z,14.90
2022-11-13T00:33:18.930Z,17.02
2022-11-13T00:35:51.925Z,16.77
2022-11-13T00:36:53.795Z,14.55
2022-11-13T00:37:55.738Z,14.82
2022-11-13T00:38:59.047Z,20.02
2022-11-13T00:40:00.956Z,17.00
2022-11-13T00:41:03.475Z,14.90
2022-11-13T00:42:05.688Z,18.08
2022-11-13T00:43:07.631Z,19.85
2022-11-13T00:44:11.821Z,16.88
2022-11-13T00:45:14.804Z,18.42
2022-11-13T00:46:16.758Z,18.70
2022-11-13T00:47:19.826Z,13.38
2022-11-13T00:48:22.231Z,17.50
2022-11-13T00:49:24.183Z,15.50
2022-11-13T00:50:26.635Z,13.25
2022-11-13T00:51:28.650Z,21.17
2022-11-13T00:52:31.240Z,17.92
2022-11-13T00:53:33.310Z,17.33
2022-11-13T00:54:35.313Z,19.13
2022-11-13T00:55:37.364Z,18.90
2022-11-13T00:56:39.263Z,16.83
2022-11-13T00:57:41.143Z,16.67
2022-11-13T00:58:43.266Z,20.35
2022-11-13T00:59:45.233Z,18.10
2022-11-13T01:00:48.415Z,15.65
2022-11-13T01:01:50.524Z,14.40
2022-11-13T01:02:52.704Z,19.77
2022-11-13T01:03:54.683Z,15.18
2022-11-13T01:04:56.664Z,15.68
2022-11-13T01:05:58.631Z,14.90
2022-11-13T01:07:00.693Z,14.57
2022-11-13T01:08:02.956Z,11.50
2022-11-13T01:09:04.884Z,14.85
2022-11-13T01:10:07.688Z,13.02
2022-11-13T01:11:17.948Z,14.00
2022-11-13T01:12:19.976Z,17.10
2022-11-13T01:13:21.939Z,20.08
2022-11-13T01:14:23.887Z,15.63
2022-11-13T01:15:26.084Z,14.43
2022-11-13T01:16:29.467Z,12.38
2022-11-13T01:17:31.417Z,18.42
2022-11-13T01:18:33.864Z,13.82
2022-11-13T01:19:36.146Z,16.05
2022-11-13T01:20:38.562Z,10.68
2022-11-13T01:21:40.539Z,12.65
2022-11-13T01:22:42.436Z,15.55
2022-11-13T01:23:44.647Z,12.38
2022-11-13T01:24:46.536Z,14.10
2022-11-13T01:25:48.722Z,17.58
2022-11-13T01:26:50.729Z,15.30
2022-11-13T01:27:53.046Z,13.60
2022-11-13T01:28:57.701Z,12.82
2022-11-13T01:29:59.639Z,9.93
2022-11-13T01:31:04.304Z,14.43
2022-11-13T01:32:06.496Z,15.73
2022-11-13T01:33:08.431Z,19.83
2022-11-13T01:34:10.373Z,14.85
2022-11-13T01:35:12.357Z,16.45
2022-11-13T01:36:23.730Z,16.10
2022-11-13T01:37:25.868Z,12.77
2022-11-13T01:38:28.082Z,12.05
2022-11-13T01:39:30.570Z,24.30
2022-11-13T01:40:37.568Z,13.40
2022-11-13T01:41:41.845Z,14.63
2022-11-13T01:42:47.192Z,13.68
2022-11-13T01:43:49.204Z,16.48
2022-11-13T01:44:52.669Z,21.50
2022-11-13T01:46:00.897Z,18.05
2022-11-13T01:47:03.700Z,15.88
2022-11-13T01:48:08.759Z,15.18
2022-11-13T01:49:10.708Z,12.57
2022-11-13T01:50:15.329Z,14.63
2022-11-13T01:51:30.004Z,14.52
2022-11-13T01:52:36.655Z,13.45
2022-11-13T01:53:39.910Z,16.55
2022-11-13T01:54:46.929Z,15.45
2022-11-13T01:55:48.994Z,13.38
2022-11-13T01:56:51.508Z,18.65
2022-11-13T01:57:54.172Z,18.23
2022-11-13T01:59:18.745Z,10.93
2022-11-13T02:00:20.739Z,16.52
2022-11-13T02:01:22.711Z,12.52
2022-11-13T02:02:25.937Z,18.40
2022-11-13T02:03:27.909Z,17.60
2022-11-13T02:04:31.363Z,13.80
2022-11-13T02:05:33.531Z,15.95
2022-11-13T02:06:45.817Z,14.15
2022-11-13T02:07:47.965Z,15.55
2022-11-13T02:08:51.368Z,17.13
2022-11-13T02:09:56.354Z,12.60
2022-11-13T02:10:58.268Z,12.68
2022-11-13T02:12:00.902Z,12.23
2022-11-13T02:13:03.446Z,12.68
2022-11-13T02:14:06.534Z,11.73
2022-11-13T02:15:10.572Z,14.40
2022-11-13T02:16:13.893Z,18.00
2022-11-13T02:17:25.582Z,13.95
2022-11-13T02:18:31.367Z,13.52
2022-11-13T02:19:43.890Z,13.63
2022-11-13T02:21:05.929Z,15.38
2022-11-13T02:22:30.520Z,18.92
2022-11-13T02:23:49.644Z,13.38
2022-11-13T02:24:54.911Z,16.38
2022-11-13T02:25:57.570Z,16.77
2022-11-13T02:27:04.765Z,14.45
2022-11-13T02:28:06.929Z,16.83
2022-11-13T02:29:09.259Z,12.25
2022-11-13T02:30:32.337Z,12.60
2022-11-13T02:32:53.606Z,11.52
2022-11-13T02:33:57.084Z,14.68
2022-11-13T02:34:59.036Z,13.70
2022-11-13T02:36:01.319Z,12.45
2022-11-13T02:37:04.182Z,15.05
2022-11-13T02:38:06.707Z,14.90
2022-11-13T02:39:12.798Z,14.85
2022-11-13T02:40:16.774Z,12.10
2022-11-13T02:41:18.731Z,9.30
2022-11-13T02:42:20.672Z,12.07
2022-11-13T02:43:22.610Z,11.57
2022-11-13T02:44:24.598Z,9.85
2022-11-13T02:45:26.473Z,9.80
2022-11-13T02:46:28.425Z,11.82
2022-11-13T02:47:30.509Z,14.05
2022-11-13T02:48:32.537Z,12.48
2022-11-13T02:49:34.545Z,12.70
2022-11-13T02:50:37.962Z,12.88
2022-11-13T02:51:39.801Z,8.80
2022-11-13T02:52:42.128Z,12.32
2022-11-13T02:53:44.284Z,12.45
2022-11-13T02:54:46.192Z,11.13
2022-11-13T02:55:48.280Z,9.25
2022-11-13T02:56:50.457Z,13.90
2022-11-13T02:57:53.450Z,11.93
2022-11-13T02:58:55.397Z,11.27
2022-11-13T02:59:57.766Z,10.43
2022-11-13T03:01:02.622Z,10.27
2022-11-13T03:02:04.868Z,11.75
2022-11-13T03:03:06.857Z,11.07
2022-11-13T03:04:09.039Z,10.10
2022-11-13T03:05:13.018Z,16.45
2022-11-13T03:06:16.498Z,12.90
2022-11-13T03:07:18.811Z,11.60
2022-11-13T03:08:26.317Z,10.63
2022-11-13T03:09:28.564Z,12.60
2022-11-13T03:10:30.572Z,9.88
2022-11-13T03:11:32.477Z,12.32
2022-11-13T03:12:34.480Z,8.52
2022-11-13T03:13:36.903Z,8.98
2022-11-13T03:14:38.882Z,10.55
2022-11-13T03:15:41.009Z,8.30
2022-11-13T03:16:43.502Z,10.40
2022-11-13T03:17:46.338Z,8.45
2022-11-13T03:18:48.325Z,8.02
2022-11-13T03:19:50.253Z,15.15
2022-11-13T03:20:54.287Z,12.10
2022-11-13T03:21:56.493Z,15.13
2022-11-13T03:22:58.454Z,12.10
2022-11-13T03:24:00.502Z,12.13
2022-11-13T03:25:07.395Z,10.98
2022-11-13T03:26:15.412Z,7.63
2022-11-13T03:27:17.726Z,12.82
2022-11-13T03:28:19.675Z,10.00
2022-11-13T03:29:21.714Z,9.50
2022-11-13T03:30:24.053Z,7.43
2022-11-13T03:31:26.782Z,9.82
2022-11-13T03:32:29.084Z,8.00
2022-11-13T03:33:31.885Z,11.05
2022-11-13T03:34:34.618Z,9.75
2022-11-13T03:35:44.197Z,7.35
2022-11-13T03:36:48.804Z,9.50
2022-11-13T03:37:51.196Z,9.73
2022-11-13T03:38:53.993Z,11.30
2022-11-13T03:39:56.209Z,8.80
2022-11-13T03:40:59.646Z,11.27
2022-11-13T03:42:01.633Z,8.93
2022-11-13T03:43:03.626Z,11.40
2022-11-13T03:44:05.585Z,10.75
2022-11-13T03:45:08.005Z,10.15
2022-11-13T03:46:10.046Z,9.98
2022-11-13T03:47:12.053Z,9.57
2022-11-13T03:48:15.381Z,9.80
2022-11-13T03:49:17.316Z,12.07
2022-11-13T03:50:19.402Z,10.23
2022-11-13T03:51:21.502Z,11.68
2022-11-13T03:52:23.525Z,10.10
2022-11-13T03:53:25.807Z,11.93
2022-11-13T03:54:28.365Z,12.68
2022-11-13T03:55:30.359Z,10.52
2022-11-13T03:56:32.352Z,10.05
2022-11-13T03:57:35.088Z,8.25
2022-11-13T03:58:40.084Z,7.63
2022-11-13T03:59:42.422Z,11.15
2022-11-13T04:00:45.405Z,12.15
2022-11-13T04:01:47.403Z,12.20
2022-11-13T04:02:49.409Z,10.68
2022-11-13T04:03:51.652Z,10.57
2022-11-13T04:04:53.917Z,9.93
2022-11-13T04:05:55.948Z,9.95
2022-11-13T04:06:57.883Z,9.13
2022-11-13T04:08:00.298Z,11.57
2022-11-13T04:09:02.604Z,7.60
2022-11-13T04:10:04.940Z,11.20
2022-11-13T04:11:11.593Z,10.93
2022-11-13T04:12:13.872Z,10.85
2022-11-13T04:13:15.887Z,15.30
2022-11-13T04:14:17.941Z,12.00
2022-11-13T04:15:21.618Z,14.25
2022-11-13T04:16:23.965Z,11.20
2022-11-13T04:17:26.377Z,11.63
2022-11-13T04:18:28.637Z,10.77
2022-11-13T04:19:30.772Z,8.27
2022-11-13T04:20:32.759Z,8.32
2022-11-13T04:21:34.804Z,9.13
2022-11-13T04:22:36.968Z,9.75
2022-11-13T04:23:38.889Z,11.85
2022-11-13T04:24:40.935Z,12.23
2022-11-13T04:25:42.969Z,15.95
2022-11-13T04:26:45.884Z,12.02
2022-11-13T04:27:49.918Z,10.35
2022-11-13T04:28:51.868Z,17.08
2022-11-13T04:29:53.906Z,11.45
2022-11-13T04:30:55.914Z,14.20
2022-11-13T04:31:57.808Z,16.80
2022-11-13T04:32:59.779Z,10.95
2022-11-13T04:34:01.935Z,7.20
2022-11-13T04:35:04.335Z,10.20
2022-11-13T04:36:06.960Z,15.27
2022-11-13T04:37:09.145Z,13.43
2022-11-13T04:38:12.967Z,10.88
2022-11-13T04:39:18.751Z,8.63
2022-11-13T04:40:20.985Z,13.82
2022-11-13T04:41:41.376Z,14.57
2022-11-13T04:42:49.570Z,10.40
2022-11-13T04:43:51.815Z,10.68
2022-11-13T04:44:54.099Z,10.68
2022-11-13T04:45:56.140Z,11.45
2022-11-13T04:46:58.133Z,10.68
2022-11-13T04:48:00.186Z,15.95
2022-11-13T04:49:02.234Z,8.60
2022-11-13T04:50:05.095Z,8.55
2022-11-13T04:51:07.352Z,14.30
2022-11-13T04:52:09.322Z,11.30
2022-11-13T04:53:11.306Z,21.00
2022-11-13T04:54:13.355Z,13.30
2022-11-13T04:55:16.041Z,13.18
2022-11-13T04:56:18.459Z,9.38
2022-11-13T04:57:20.730Z,12.30
2022-11-13T04:58:22.737Z,10.20
2022-11-13T04:59:25.075Z,10.75
2022-11-13T05:00:27.119Z,15.20
2022-11-13T05:01:29.379Z,13.10
2022-11-13T05:02:32.136Z,14.10
2022-11-13T05:03:34.123Z,11.18
2022-11-13T05:04:36.448Z,16.17
2022-11-13T05:05:38.461Z,16.45
2022-11-13T05:06:41.850Z,14.07
2022-11-13T05:07:43.986Z,14.38
2022-11-13T05:08:46.479Z,11.85
2022-11-13T05:09:48.752Z,13.05
2022-11-13T05:10:50.654Z,10.50
2022-11-13T05:11:52.614Z,19.55
2022-11-13T05:12:57.328Z,10.10
2022-11-13T05:14:03.276Z,13.77
2022-11-13T05:15:06.604Z,15.20
2022-11-13T05:16:10.936Z,19.65
2022-11-13T05:17:13.873Z,17.40
2022-11-13T05:18:15.832Z,11.45
2022-11-13T05:19:17.938Z,16.20
2022-11-13T05:20:20.071Z,13.20
2022-11-13T05:21:21.994Z,11.13
2022-11-13T05:22:23.915Z,15.68
2022-11-13T05:23:25.970Z,15.93
2022-11-13T05:24:27.916Z,13.25
2022-11-13T05:25:31.115Z,15.18
2022-11-13T05:26:33.091Z,15.60
2022-11-13T05:27:35.164Z,14.15
2022-11-13T05:28:38.058Z,16.80
2022-11-13T05:29:41.631Z,11.90
2022-11-13T05:30:44.248Z,12.45
2022-11-13T05:31:46.655Z,11.95
2022-11-13T05:32:48.674Z,12.50
2022-11-13T05:33:50.729Z,13.70
2022-11-13T05:34:53.781Z,13.10
2022-11-13T05:35:56.047Z,10.43
2022-11-13T05:36:58.217Z,11.65
2022-11-13T05:38:03.987Z,13.88
2022-11-13T05:39:06.472Z,11.30
2022-11-13T05:40:09.734Z,17.98
2022-11-13T05:41:19.188Z,13.38
2022-11-13T05:42:23.721Z,11.57
2022-11-13T05:43:26.603Z,16.38
2022-11-13T05:44:28.722Z,17.42
2022-11-13T05:45:31.692Z,12.73
2022-11-13T05:46:33.638Z,12.90
2022-11-13T05:47:35.744Z,11.80
2022-11-13T05:48:38.615Z,11.45
2022-11-13T05:49:40.567Z,13.07
2022-11-13T05:50:44.263Z,11.55
2022-11-13T05:51:56.603Z,17.00
2022-11-13T05:54:01.354Z,15.10
2022-11-13T05:55:03.562Z,18.48
2022-11-13T05:56:18.134Z,15.02
2022-11-13T05:57:20.100Z,19.33
2022-11-13T05:58:22.116Z,15.77
2022-11-13T05:59:24.626Z,18.85
2022-11-13T06:00:26.508Z,25.42
2022-11-13T06:01:37.645Z,16.20
2022-11-13T06:03:43.057Z,11.70
2022-11-13T06:04:45.074Z,19.83
2022-11-13T06:05:47.038Z,18.27
2022-11-13T06:06:49.189Z,16.17
2022-11-13T06:07:51.221Z,15.30
2022-11-13T06:08:56.485Z,16.88
2022-11-13T06:09:58.815Z,13.95
2022-11-13T06:11:03.969Z,14.15
2022-11-13T06:12:06.125Z,13.00
2022-11-13T06:13:08.095Z,18.17
2022-11-13T06:14:10.100Z,13.13
2022-11-13T06:15:12.273Z,18.50
2022-11-13T06:16:20.049Z,18.05
2022-11-13T06:17:21.993Z,15.88
2022-11-13T06:18:26.728Z,14.02
2022-11-13T06:19:29.202Z,14.95
2022-11-13T06:20:31.490Z,16.15
2022-11-13T06:21:35.471Z,17.10
2022-11-13T06:22:37.390Z,12.85
2022-11-13T06:23:40.666Z,12.52
2022-11-13T06:24:42.662Z,16.35
2022-11-13T06:25:44.699Z,12.30
2022-11-13T06:26:46.656Z,12.85
2022-11-13T06:27:48.916Z,11.50
2022-11-13T06:28:51.363Z,13.68
2022-11-13T06:29:53.914Z,12.05
2022-11-13T06:30:55.780Z,13.10
2022-11-13T06:31:57.714Z,15.55
2022-11-13T06:33:00.383Z,15.90
2022-11-13T06:34:03.477Z,12.02
2022-11-13T06:35:05.894Z,18.38
2022-11-13T06:36:12.514Z,16.42
2022-11-13T06:37:15.911Z,16.75
2022-11-13T06:38:19.483Z,18.45
2022-11-13T06:39:21.470Z,15.88
2022-11-13T06:40:23.727Z,11.63
2022-11-13T06:41:29.964Z,15.13
2022-11-13T06:42:31.896Z,17.65
2022-11-13T06:43:34.167Z,16.17
2022-11-13T06:44:36.516Z,21.08
2022-11-13T06:45:38.489Z,21.63
2022-11-13T06:46:40.809Z,18.55
2022-11-13T06:47:42.813Z,17.38
2022-11-13T06:48:45.517Z,14.55
2022-11-13T06:49:47.483Z,13.82
2022-11-13T06:50:49.932Z,12.57
2022-11-13T06:51:52.493Z,15.93
2022-11-13T06:52:55.252Z,12.55
2022-11-13T06:53:58.190Z,17.95
2022-11-13T06:55:01.591Z,13.82
2022-11-13T06:56:06.336Z,15.77
2022-11-13T06:57:08.305Z,14.60
2022-11-13T06:58:10.621Z,13.90
2022-11-13T06:59:12.870Z,16.77
2022-11-13T07:00:15.491Z,13.93
2022-11-13T07:01:22.093Z,11.70
2022-11-13T07:02:24.123Z,16.77
2022-11-13T07:03:27.012Z,17.58
2022-11-13T07:04:28.961Z,15.43
2022-11-13T07:05:31.179Z,11.77
2022-11-13T07:06:37.584Z,15.07
2022-11-13T07:07:42.585Z,11.30
2022-11-13T07:08:47.048Z,13.13
2022-11-13T07:09:49.412Z,12.25
2022-11-13T07:10:55.867Z,17.05
2022-11-13T07:11:58.370Z,12.40
2022-11-13T07:13:00.808Z,12.70
2022-11-13T07:14:02.759Z,15.27
2022-11-13T07:15:05.328Z,14.95
2022-11-13T07:16:16.282Z,12.90
2022-11-13T07:17:21.322Z,11.15
2022-11-13T07:18:25.980Z,11.05
2022-11-13T07:19:28.225Z,13.43
2022-11-13T07:20:31.109Z,12.35
2022-11-13T07:21:33.064Z,11.07
2022-11-13T07:22:35.025Z,16.65
2022-11-13T07:23:39.909Z,19.17
2022-11-13T07:24:42.865Z,13.98
2022-11-13T07:25:45.078Z,9.48
2022-11-13T07:26:49.864Z,9.73
2022-11-13T07:27:52.492Z,11.73
2022-11-13T07:28:54.461Z,13.23
2022-11-13T07:30:00.847Z,10.88
2022-11-13T07:31:06.877Z,15.45
2022-11-13T07:32:08.922Z,10.82
2022-11-13T07:33:10.797Z,11.40
2022-11-13T07:34:12.678Z,8.70
2022-11-13T07:35:14.882Z,11.00
2022-11-13T07:36:16.980Z,9.40
2022-11-13T07:37:22.585Z,8.60
2022-11-13T07:38:28.684Z,9.63
2022-11-13T07:39:31.317Z,7.13
2022-11-13T07:40:33.663Z,8.65
2022-11-13T07:41:35.712Z,6.80
2022-11-13T07:42:38.158Z,6.05
2022-11-13T07:43:42.191Z,11.15
2022-11-13T07:44:59.925Z,8.48
2022-11-13T07:46:02.200Z,13.20
2022-11-13T07:47:05.708Z,12.23
2022-11-13T07:48:07.817Z,7.55
2022-11-13T07:49:10.040Z,11.45
2022-11-13T07:50:14.009Z,12.02
2022-11-13T07:51:19.510Z,11.32
2022-11-13T07:52:21.482Z,11.40
2022-11-13T07:53:24.389Z,13.98
2022-11-13T07:54:27.925Z,12.55
2022-11-13T07:55:33.926Z,10.35
2022-11-13T07:56:36.637Z,11.10
2022-11-13T07:57:38.803Z,9.82
2022-11-13T07:58:42.354Z,11.82
2022-11-13T07:59:44.372Z,9.80
2022-11-13T08:00:46.422Z,13.27
2022-11-13T08:01:49.020Z,14.40
2022-11-13T08:02:51.341Z,16.63
2022-11-13T08:03:53.332Z,11.95
2022-11-13T08:04:55.230Z,13.93
2022-11-13T08:06:05.626Z,11.38
2022-11-13T08:07:08.201Z,12.13
2022-11-13T08:08:17.442Z,10.95
2022-11-13T08:09:21.110Z,14.57
2022-11-13T08:10:23.575Z,10.85
2022-11-13T08:11:25.641Z,14.48
2022-11-13T08:12:29.265Z,12.07
2022-11-13T08:13:31.628Z,10.35
2022-11-13T08:14:34.066Z,10.77
2022-11-13T08:15:36.359Z,14.77
2022-11-13T08:16:40.104Z,18.08
2022-11-13T08:17:43.161Z,14.77
2022-11-13T08:18:45.250Z,13.90
2022-11-13T08:19:52.189Z,9.88
2022-11-13T08:20:55.548Z,13.10
2022-11-13T08:21:58.155Z,15.25
2022-11-13T08:23:01.788Z,13.55
2022-11-13T08:24:04.323Z,13.70
2022-11-13T08:25:06.496Z,11.50
2022-11-13T08:26:10.888Z,17.55
2022-11-13T08:27:14.912Z,16.25
2022-11-13T08:28:16.991Z,12.77
2022-11-13T08:29:18.968Z,13.85
2022-11-13T08:30:22.665Z,15.20
2022-11-13T08:31:25.504Z,16.00
2022-11-13T08:32:28.328Z,16.35
2022-11-13T08:33:33.881Z,16.98
2022-11-13T08:34:38.539Z,19.63
2022-11-13T08:35:40.965Z,16.33
2022-11-13T08:36:43.313Z,17.63
2022-11-13T08:37:45.883Z,12.52
2022-11-13T08:38:53.252Z,18.33
2022-11-13T08:40:05.775Z,18.17
2022-11-13T08:41:38.659Z,12.68
2022-11-13T08:42:53.184Z,12.95
2022-11-13T08:44:16.354Z,21.92
2022-11-13T08:47:01.058Z,17.17
2022-11-13T08:49:34.667Z,16.45
2022-11-13T08:50:44.492Z,18.38
2022-11-13T08:51:58.567Z,16.88
2022-11-13T08:53:37.676Z,18.00
2022-11-13T09:02:21.541Z,16.42
2022-11-13T09:03:34.203Z,19.20
2022-11-13T09:04:42.049Z,19.65
2022-11-13T09:05:49.977Z,19.25
2022-11-13T09:07:04.166Z,15.90
2022-11-13T09:08:16.252Z,12.27
2022-11-13T09:09:23.893Z,14.65
2022-11-13T09:10:38.532Z,16.00
2022-11-13T09:13:16.354Z,13.52
2022-11-13T09:14:28.504Z,19.77
2022-11-13T09:15:33.939Z,16.92
2022-11-13T09:16:45.788Z,14.45
2022-11-13T09:18:05.407Z,15.57
2022-11-13T09:19:17.993Z,13.30
2022-11-13T09:20:30.335Z,18.77
2022-11-13T09:23:06.276Z,15.00
2022-11-13T09:24:13.399Z,10.15
2022-11-13T09:25:17.708Z,13.57
2022-11-13T09:26:51.740Z,12.60
2022-11-13T09:27:55.729Z,12.45
2022-11-13T09:28:57.793Z,12.07
2022-11-13T09:30:05.035Z,14.63
2022-11-13T09:31:08.089Z,15.60
2022-11-13T09:32:18.651Z,14.02
2022-11-13T09:33:23.045Z,14.40
2022-11-13T09:34:33.785Z,18.40
2022-11-13T09:35:45.967Z,16.50
2022-11-13T09:36:48.303Z,11.07
2022-11-13T09:37:54.113Z,13.10
2022-11-13T09:39:06.016Z,12.80
2022-11-13T09:40:58.107Z,12.57
2022-11-13T09:42:24.190Z,13.85
2022-11-13T09:43:47.197Z,11.13
2022-11-13T09:45:10.664Z,10.20
2022-11-13T09:46:22.073Z,11.90
2022-11-13T09:47:30.376Z,8.45
2022-11-13T09:48:41.571Z,11.85
2022-11-13T09:50:47.868Z,12.63
2022-11-13T09:52:06.891Z,8.25
2022-11-13T09:53:15.446Z,9.95
2022-11-13T09:54:19.278Z,8.23
2022-11-13T09:55:28.808Z,10.10
2022-11-13T09:56:42.727Z,9.90
2022-11-13T09:58:04.137Z,10.63
2022-11-13T10:00:28.966Z,10.68
2022-11-13T10:01:38.200Z,11.73
2022-11-13T10:02:55.197Z,10.18
2022-11-13T10:04:04.135Z,6.22
2022-11-13T10:05:30.371Z,9.95
2022-11-13T10:06:44.050Z,9.98
2022-11-13T10:08:19.913Z,8.63
2022-11-13T10:09:33.054Z,7.65
2022-11-13T10:10:49.294Z,11.20
2022-11-13T10:12:04.213Z,11.27
2022-11-13T10:13:30.979Z,10.25
2022-11-13T10:14:46.464Z,14.30
2022-11-13T10:15:54.278Z,6.05
2022-11-13T10:17:15.002Z,10.50
2022-11-13T10:18:36.700Z,6.45
2022-11-13T10:19:56.570Z,9.02
2022-11-13T10:21:25.139Z,14.10
2022-11-13T10:22:35.650Z,11.15
2022-11-13T10:23:41.283Z,8.32
2022-11-13T10:24:45.135Z,7.57
2022-11-13T10:25:47.879Z,6.13
2022-11-13T10:26:49.960Z,7.32
2022-11-13T10:28:16.148Z,5.93
2022-11-13T10:29:28.641Z,12.88
2022-11-13T10:30:33.191Z,11.07
2022-11-13T10:31:51.692Z,12.43
2022-11-13T10:32:53.978Z,9.45
2022-11-13T10:33:58.171Z,9.40
2022-11-13T10:35:07.996Z,8.10
2022-11-13T10:36:51.533Z,9.18
2022-11-13T10:38:08.700Z,5.22
2022-11-13T10:39:10.901Z,8.45
2022-11-13T10:40:27.683Z,9.25
2022-11-13T10:41:29.685Z,7.07
2022-11-13T10:42:40.806Z,9.52
2022-11-13T10:44:59.984Z,10.23
2022-11-13T10:46:05.587Z,10.23
2022-11-13T10:47:36.145Z,6.88
2022-11-13T10:48:41.208Z,10.68
2022-11-13T10:49:43.657Z,15.65
2022-11-13T10:50:57.208Z,8.00
2022-11-13T10:52:08.434Z,6.80
2022-11-13T10:53:18.362Z,8.95
2022-11-13T10:54:26.698Z,11.65
2022-11-13T10:55:38.084Z,7.28
2022-11-13T10:56:46.001Z,9.50
2022-11-13T10:57:59.511Z,8.18
2022-11-13T10:59:17.789Z,8.07
2022-11-13T11:00:26.201Z,10.90
2022-11-13T11:01:28.711Z,8.65
2022-11-13T11:02:33.372Z,8.63
2022-11-13T11:03:35.232Z,7.80
2022-11-13T11:04:37.156Z,9.05
2022-11-13T11:06:03.360Z,9.30
2022-11-13T11:07:21.340Z,10.38
2022-11-13T11:08:33.263Z,9.55
2022-11-13T11:09:38.666Z,8.82
2022-11-13T11:11:01.214Z,8.82
2022-11-13T11:12:19.735Z,14.07
2022-11-13T11:13:23.683Z,8.80
2022-11-13T11:14:30.756Z,7.15
2022-11-13T11:15:55.892Z,5.93
2022-11-13T11:17:04.852Z,10.95
2022-11-13T11:18:49.852Z,10.82
2022-11-13T11:20:00.955Z,6.47
2022-11-13T11:21:10.713Z,10.52
2022-11-13T11:22:17.860Z,12.90
2022-11-13T11:23:41.647Z,6.13
2022-11-13T11:24:55.787Z,11.80
2022-11-13T11:26:22.797Z,8.73
2022-11-13T11:27:40.503Z,11.13
2022-11-13T11:29:00.363Z,8.68
2022-11-13T11:30:25.007Z,7.85
2022-11-13T11:31:38.174Z,11.48
2022-11-13T11:32:58.277Z,8.45
2022-11-13T11:34:13.562Z,6.60
2022-11-13T11:35:26.543Z,7.97
2022-11-13T11:36:46.429Z,9.50
2022-11-13T11:37:51.111Z,9.43
2022-11-13T11:39:02.759Z,8.02
2022-11-13T11:40:27.124Z,7.93
2022-11-13T11:41:57.540Z,11.18
2022-11-13T11:43:13.292Z,13.32
2022-11-13T11:44:28.123Z,9.93
2022-11-13T11:45:37.528Z,11.05
2022-11-13T11:46:46.667Z,9.23
2022-11-13T11:47:49.298Z,8.98
2022-11-13T11:48:51.879Z,9.60
2022-11-13T11:49:58.031Z,12.27
2022-11-13T11:51:28.892Z,13.10
2022-11-13T11:52:57.198Z,17.65
2022-11-13T11:54:31.250Z,10.68
2022-11-13T11:56:09.854Z,12.10
2022-11-13T11:57:45.619Z,8.68
2022-11-13T11:58:56.691Z,4.53
2022-11-13T12:00:13.802Z,11.68
2022-11-13T12:01:35.287Z,9.73
2022-11-13T12:02:54.885Z,9.98
2022-11-13T12:04:15.265Z,12.30
2022-11-13T12:05:25.020Z,8.20
2022-11-13T12:07:03.915Z,9.57
2022-11-13T12:08:39.482Z,11.85
2022-11-13T12:10:13.498Z,15.68
2022-11-13T12:11:30.009Z,10.30
2022-11-13T12:12:37.494Z,12.23
2022-11-13T12:14:04.983Z,13.38
2022-11-13T12:15:18.820Z,15.90
2022-11-13T12:16:30.359Z,18.67
2022-11-13T12:17:56.822Z,12.43
2022-11-13T12:19:15.805Z,17.05
2022-11-13T12:20:54.617Z,13.23
2022-11-13T12:21:59.157Z,11.05
2022-11-13T12:23:41.969Z,7.57
2022-11-13T12:25:01.607Z,8.57
2022-11-13T12:26:18.160Z,11.35
2022-11-13T12:27:43.769Z,11.68
2022-11-13T12:29:14.976Z,12.02
2022-11-13T12:30:27.813Z,11.13
2022-11-13T12:31:41.333Z,7.43
2022-11-13T12:32:55.063Z,13.55
2022-11-13T12:34:16.099Z,13.45
2022-11-13T12:35:23.775Z,11.30
2022-11-13T12:36:26.439Z,12.32
2022-11-13T12:37:42.217Z,12.25
2022-11-13T12:38:49.891Z,14.45
2022-11-13T12:40:03.550Z,17.10
2022-11-13T12:41:23.785Z,11.88
2022-11-13T12:42:55.257Z,16.90
2022-11-13T12:44:13.685Z,18.70
2022-11-13T12:45:36.746Z,16.63
2022-11-13T12:46:42.018Z,16.63
2022-11-13T12:47:45.308Z,15.63
2022-11-13T12:48:48.331Z,16.77
2022-11-13T12:50:00.163Z,16.45
2022-11-13T12:51:04.891Z,15.60
2022-11-13T12:52:24.309Z,18.67
2022-11-13T12:53:31.916Z,15.52
2022-11-13T12:54:37.848Z,22.52
2022-11-13T12:55:41.534Z,17.58
2022-11-13T12:56:43.757Z,19.63
2022-11-13T12:57:48.775Z,15.05
2022-11-13T12:59:35.900Z,17.83
2022-11-13T13:00:51.819Z,13.23
2022-11-13T13:02:19.305Z,18.88
2022-11-13T13:03:21.402Z,16.20
2022-11-13T13:04:47.253Z,15.52
2022-11-13T13:05:58.877Z,18.33
2022-11-13T13:07:23.126Z,15.45
2022-11-13T13:08:48.469Z,13.75
2022-11-13T13:10:17.650Z,13.50
2022-11-13T13:11:45.716Z,15.20
2022-11-13T13:13:11.413Z,19.10
2022-11-13T13:14:31.796Z,15.80
2022-11-13T13:15:38.372Z,21.13
2022-11-13T13:16:40.321Z,16.15
2022-11-13T13:17:43.293Z,16.23
2022-11-13T13:18:46.553Z,14.10
2022-11-13T13:19:58.959Z,11.85
2022-11-13T13:21:10.690Z,27.45
2022-11-13T13:22:26.430Z,13.75
2022-11-13T13:23:32.876Z,15.73
2022-11-13T13:24:37.483Z,17.52
2022-11-13T13:25:40.636Z,12.80
2022-11-13T13:26:47.451Z,13.95
2022-11-13T13:28:08.783Z,17.98
2022-11-13T13:29:24.154Z,14.88
2022-11-13T13:30:27.163Z,16.75
2022-11-13T13:31:54.902Z,13.48
2022-11-13T13:33:31.533Z,21.73
2022-11-13T13:34:55.617Z,18.75
2022-11-13T13:36:06.566Z,16.25
2022-11-13T13:37:20.194Z,16.85
2022-11-13T13:38:26.331Z,16.63
2022-11-13T13:39:40.628Z,16.38
2022-11-13T13:40:57.630Z,12.98
2022-11-13T13:42:05.693Z,18.58
2022-11-13T13:43:13.413Z,12.63
2022-11-13T13:44:21.052Z,17.20
2022-11-13T13:45:37.289Z,13.90
2022-11-13T13:46:39.576Z,16.63
2022-11-13T13:47:47.035Z,17.40
2022-11-13T13:48:51.980Z,15.52
2022-11-13T13:49:54.656Z,21.95
2022-11-13T13:50:58.115Z,20.02
2022-11-13T13:52:00.361Z,20.38
2022-11-13T13:53:03.412Z,20.50
2022-11-13T13:54:08.183Z,20.55
2022-11-13T13:55:38.223Z,22.15
2022-11-13T13:56:41.428Z,36.30
2022-11-13T13:57:43.518Z,36.95
2022-11-13T13:58:47.293Z,28.63
2022-11-13T13:59:51.117Z,30.30
2022-11-13T14:02:24.631Z,34.85
2022-11-13T14:03:29.347Z,39.15
2022-11-13T14:04:42.472Z,33.00
2022-11-13T14:05:44.337Z,36.00
2022-11-13T14:06:55.308Z,40.30
2022-11-13T14:07:58.528Z,42.58
2022-11-13T14:09:11.630Z,32.70
2022-11-13T14:10:17.603Z,31.95
2022-11-13T14:11:22.902Z,33.03
2022-11-13T14:12:24.843Z,31.75
2022-11-13T14:13:29.221Z,43.40
2022-11-13T14:14:32.073Z,54.47
2022-11-13T14:15:35.650Z,54.88
2022-11-13T14:16:50.419Z,57.75
2022-11-13T14:17:52.712Z,43.20
2022-11-13T14:19:06.072Z,42.50
2022-11-13T14:20:12.446Z,39.72
2022-11-13T14:21:22.063Z,38.58
2022-11-13T14:22:25.426Z,28.20
2022-11-13T14:23:33.677Z,24.67
2022-11-13T14:24:54.765Z,28.98
2022-11-13T14:25:57.796Z,24.50
2022-11-13T14:27:02.471Z,51.40
2022-11-13T14:28:04.756Z,146.73
2022-11-13T14:29:06.664Z,214.73
2022-11-13T14:30:25.038Z,181.38
2022-11-13T14:31:30.498Z,96.38
2022-11-13T14:32:41.892Z,36.90
2022-11-13T14:33:49.313Z,27.90
2022-11-13T14:35:02.018Z,18.95
2022-11-13T14:36:04.850Z,19.10
2022-11-13T14:37:19.149Z,20.98
2022-11-13T14:38:27.491Z,17.55
2022-11-13T14:39:33.336Z,17.83
2022-11-13T14:40:37.676Z,16.77
2022-11-13T14:41:47.815Z,20.15
2022-11-13T14:43:08.142Z,14.07
2022-11-13T14:44:12.119Z,17.75
2022-11-13T14:45:15.912Z,14.48
2022-11-13T14:46:38.054Z,13.45
2022-11-13T14:47:39.969Z,19.75
2022-11-13T14:48:54.194Z,20.33
2022-11-13T14:49:56.169Z,20.77
2022-11-13T14:51:03.208Z,17.80
2022-11-13T14:52:07.233Z,13.80